createdAt,value
2018-05-02T00:02:10.844Z,69.10
2018-05-02T00:14:04.705Z,67.20
2018-05-02T00:19:57.978Z,67.30
2018-05-02T00:23:04.393Z,66.50
2018-05-02T00:26:03.875Z,67.20
2018-05-02T00:51:07.647Z,64.10
2018-05-02T01:00:20.716Z,63.30
2018-05-02T01:03:30.265Z,64.70
2018-05-02T01:09:23.582Z,66.60
2018-05-02T01:15:19.860Z,67.20
2018-05-02T01:18:26.469Z,67.80
2018-05-02T01:24:11.831Z,67.80
2018-05-02T01:27:25.247Z,67.40
2018-05-02T01:35:58.825Z,68.10
2018-05-02T01:45:23.150Z,68.80
2018-05-02T01:52:26.268Z,69.50
2018-05-02T02:13:44.808Z,70.40
2018-05-02T02:19:24.270Z,70.30
2018-05-02T02:22:29.123Z,69.50
2018-05-02T02:31:26.999Z,67.50
2018-05-02T02:37:40.237Z,68.10
2018-05-02T02:46:41.279Z,67.10
2018-05-02T02:55:51.146Z,67.30
2018-05-02T03:42:07.130Z,59.90
2018-05-02T03:51:00.655Z,59.20
2018-05-02T04:19:58.270Z,61.30
2018-05-02T04:32:02.228Z,61.70
2018-05-02T04:51:26.100Z,63.00
2018-05-02T05:52:12.805Z,62.90
2018-05-02T05:58:47.372Z,61.80
2018-05-02T06:01:48.288Z,62.10
2018-05-02T06:05:11.254Z,62.90
2018-05-02T06:13:45.477Z,63.30
2018-05-02T06:16:28.371Z,63.00
2018-05-02T06:19:09.511Z,62.10
2018-05-02T06:22:33.726Z,60.80
2018-05-02T06:25:53.141Z,61.90
2018-05-02T06:44:06.599Z,63.30
2018-05-02T06:55:33.495Z,60.00
2018-05-02T07:01:33.215Z,58.70
2018-05-02T07:04:42.457Z,58.40
2018-05-02T07:27:07.991Z,61.00
2018-05-02T07:41:47.381Z,60.00
2018-05-02T07:44:36.006Z,60.20
2018-05-02T08:18:03.418Z,61.10
2018-05-02T08:35:35.865Z,62.50
2018-05-02T08:48:50.068Z,58.00
2018-05-02T08:59:41.390Z,54.50
2018-05-02T09:02:11.752Z,55.00
2018-05-02T09:04:42.020Z,53.60
2018-05-02T09:18:05.704Z,57.90
2018-05-02T10:28:21.015Z,61.10
2018-05-02T10:38:22.813Z,61.60
2018-05-02T11:26:04.617Z,53.30
2018-05-02T11:28:33.176Z,50.90
2018-05-02T11:31:00.967Z,51.00
2018-05-02T11:33:29.515Z,50.00
2018-05-02T11:35:57.288Z,50.00
2018-05-02T11:38:25.074Z,51.40
2018-05-02T11:40:53.635Z,51.10
2018-05-02T11:43:21.416Z,51.10
2018-05-02T11:45:49.978Z,48.80
2018-05-02T11:48:17.764Z,48.60
2018-05-02T11:50:46.312Z,47.10
2018-05-02T11:53:14.084Z,47.00
2018-05-02T11:55:42.696Z,48.60
2018-05-02T11:58:11.268Z,47.90
2018-05-02T12:00:39.050Z,47.20
2018-05-02T12:03:07.596Z,47.50
2018-05-02T12:05:35.453Z,47.40
2018-05-02T12:08:03.241Z,48.10
2018-05-02T12:10:31.084Z,49.60
2018-05-02T12:12:58.915Z,50.50
2018-05-02T12:15:26.696Z,50.00
2018-05-02T12:17:54.477Z,48.70
2018-05-02T12:20:22.256Z,50.00
2018-05-02T12:22:50.053Z,51.00
2018-05-02T12:25:18.651Z,52.50
2018-05-02T12:27:46.497Z,52.40
2018-05-02T12:30:15.166Z,51.60
2018-05-02T12:32:42.952Z,51.60
2018-05-02T12:35:11.514Z,48.70
2018-05-02T12:37:39.291Z,48.70
2018-05-02T12:40:07.848Z,51.80
2018-05-02T12:42:35.709Z,51.80
2018-05-02T12:45:03.576Z,52.20
2018-05-02T12:47:31.375Z,52.60
2018-05-02T12:49:59.995Z,50.50
2018-05-02T12:52:27.829Z,50.60
2018-05-02T12:54:56.440Z,50.30
2018-05-02T12:57:24.234Z,50.20
2018-05-02T12:59:52.011Z,49.50
2018-05-02T13:02:19.780Z,51.70
2018-05-02T13:04:47.572Z,52.90
2018-05-02T13:07:16.117Z,56.50
2018-05-02T13:09:44.651Z,57.00
2018-05-02T13:12:12.473Z,57.00
2018-05-02T13:14:40.359Z,56.60
2018-05-02T13:17:08.922Z,52.30
2018-05-02T13:19:36.772Z,52.20
2018-05-02T13:22:04.600Z,50.50
2018-05-02T13:24:32.387Z,51.30
2018-05-02T13:27:00.199Z,52.60
2018-05-02T13:29:28.263Z,53.80
2018-05-02T13:31:56.069Z,54.00
2018-05-02T13:34:23.856Z,55.50
2018-05-02T13:36:51.625Z,54.70
2018-05-02T13:39:19.393Z,55.20
2018-05-02T13:41:47.177Z,54.80
2018-05-02T13:44:15.009Z,56.10
2018-05-02T13:46:42.827Z,55.20
2018-05-02T13:49:10.662Z,53.90
2018-05-02T13:51:38.508Z,52.60
2018-05-02T13:54:07.180Z,51.00
2018-05-02T13:56:34.989Z,50.30
2018-05-02T13:59:02.780Z,47.80
2018-05-02T14:01:31.313Z,45.30
2018-05-02T14:03:59.125Z,45.30
2018-05-02T14:06:27.709Z,44.80
2018-05-02T14:08:56.264Z,44.30
2018-05-02T14:11:24.101Z,44.20
2018-05-02T14:13:51.927Z,44.80
2018-05-02T14:16:20.468Z,44.90
2018-05-02T14:18:48.263Z,44.80
2018-05-02T14:21:16.841Z,46.20
2018-05-02T14:23:45.387Z,45.60
2018-05-02T14:26:13.200Z,45.60
2018-05-02T14:28:42.706Z,47.30
2018-05-02T14:31:11.277Z,48.10
2018-05-02T14:33:39.859Z,50.00
2018-05-02T14:36:07.688Z,49.50
2018-05-02T14:38:35.488Z,48.80
2018-05-02T14:41:03.268Z,50.00
2018-05-02T14:43:31.865Z,51.10
2018-05-02T14:45:59.639Z,51.10
2018-05-02T14:48:27.421Z,52.80
2018-05-02T14:50:56.148Z,53.10
2018-05-02T14:53:23.939Z,53.10
2018-05-02T14:55:52.498Z,52.70
2018-05-02T14:58:20.308Z,52.70
2018-05-02T15:00:48.072Z,51.50
2018-05-02T15:03:15.870Z,52.80
2018-05-02T15:05:43.664Z,51.70
2018-05-02T15:08:12.248Z,51.90
2018-05-02T15:10:40.784Z,54.40
2018-05-02T15:13:08.574Z,54.40
2018-05-02T15:15:36.388Z,54.50
2018-05-02T15:18:04.172Z,55.90
2018-05-02T15:20:31.961Z,53.90
2018-05-02T15:22:59.756Z,54.10
2018-05-02T15:25:28.336Z,52.70
2018-05-02T15:27:56.899Z,52.50
2018-05-02T15:30:24.683Z,52.50
2018-05-02T15:32:53.235Z,51.60
2018-05-02T15:35:21.031Z,51.50
2018-05-02T15:37:49.603Z,49.90
2018-05-02T15:40:18.282Z,50.40
2018-05-02T15:42:46.057Z,50.40
2018-05-02T15:45:14.657Z,50.40
2018-05-02T15:47:43.203Z,51.40
2018-05-02T15:50:11.747Z,51.30
2018-05-02T15:52:39.548Z,52.80
2018-05-02T15:55:07.370Z,52.10
2018-05-02T15:57:35.169Z,49.80
2018-05-02T16:00:03.160Z,50.50
2018-05-02T16:02:30.928Z,50.80
2018-05-02T16:04:58.728Z,51.20
2018-05-02T16:07:26.512Z,49.00
2018-05-02T16:09:55.094Z,48.70
2018-05-02T16:12:22.923Z,49.50
2018-05-02T16:14:51.497Z,50.40
2018-05-02T16:17:20.063Z,50.30
2018-05-02T16:19:47.903Z,50.20
2018-05-02T16:22:15.692Z,51.20
2018-05-02T16:24:43.504Z,49.40
2018-05-02T16:27:11.395Z,47.00
2018-05-02T16:29:39.184Z,46.20
2018-05-02T16:32:06.968Z,45.40
2018-05-02T16:34:35.527Z,44.20
2018-05-02T16:37:03.396Z,44.20
2018-05-02T16:39:31.242Z,42.50
2018-05-02T16:41:59.071Z,43.90
2018-05-02T16:44:26.885Z,44.10
2018-05-02T16:46:54.718Z,43.70
2018-05-02T16:49:22.544Z,43.30
2018-05-02T16:51:50.367Z,42.70
2018-05-02T16:54:18.212Z,44.30
2018-05-02T16:56:45.984Z,43.40
2018-05-02T16:59:13.812Z,44.50
2018-05-02T17:01:42.364Z,44.30
2018-05-02T17:04:10.232Z,44.30
2018-05-02T17:06:42.857Z,43.20
2018-05-02T17:09:11.216Z,42.10
2018-05-02T17:11:39.827Z,42.50
2018-05-02T17:14:07.607Z,42.40
2018-05-02T17:16:35.381Z,43.20
2018-05-02T17:19:17.179Z,42.70
2018-05-02T17:21:45.044Z,42.90
2018-05-02T17:24:12.831Z,43.00
2018-05-02T17:26:40.654Z,42.70
2018-05-02T17:29:08.497Z,43.00
2018-05-02T17:31:36.276Z,43.30
2018-05-02T17:34:04.132Z,42.10
2018-05-02T17:36:31.912Z,42.10
2018-05-02T17:39:01.779Z,42.60
2018-05-02T17:41:29.561Z,41.60
2018-05-02T17:43:58.139Z,40.30
2018-05-02T17:46:26.796Z,40.60
2018-05-02T17:48:54.593Z,40.30
2018-05-02T17:51:23.640Z,41.10
2018-05-02T17:53:52.235Z,41.00
2018-05-02T17:56:20.303Z,41.00
2018-05-02T17:58:49.330Z,41.10
2018-05-02T18:01:26.059Z,41.30
2018-05-02T18:03:56.408Z,41.30
2018-05-02T18:06:24.241Z,41.40
2018-05-02T18:08:55.297Z,42.60
2018-05-02T18:11:28.891Z,42.90
2018-05-02T18:14:04.139Z,44.00
2018-05-02T18:16:32.872Z,44.50
2018-05-02T18:19:00.696Z,44.50
2018-05-02T18:21:28.483Z,44.90
2018-05-02T18:23:57.041Z,45.30
2018-05-02T18:26:25.616Z,46.20
2018-05-02T18:28:53.405Z,46.40
2018-05-02T18:31:21.257Z,46.30
2018-05-02T18:33:49.083Z,46.60
2018-05-02T18:36:16.880Z,47.00
2018-05-02T18:38:44.702Z,47.50
2018-05-02T18:41:17.168Z,47.50
2018-05-02T18:46:30.109Z,47.40
2018-05-02T18:48:57.888Z,47.40
2018-05-02T18:51:35.216Z,47.90
2018-05-02T18:54:03.039Z,48.10
2018-05-02T18:56:30.863Z,48.20
2018-05-02T18:58:58.889Z,48.80
2018-05-02T19:01:26.727Z,49.10
2018-05-02T19:03:54.730Z,48.90
2018-05-02T19:06:22.595Z,48.90
2018-05-02T19:08:50.365Z,49.50
2018-05-02T19:11:18.739Z,50.00
2018-05-02T19:13:53.081Z,50.10
2018-05-02T19:16:22.034Z,50.90
2018-05-02T19:18:55.464Z,50.90
2018-05-02T19:21:23.667Z,51.80
2018-05-02T19:23:54.026Z,51.20
2018-05-02T19:26:32.544Z,51.20
2018-05-02T19:29:01.447Z,51.20
2018-05-02T19:31:38.009Z,51.30
2018-05-02T19:34:06.698Z,51.80
2018-05-02T19:36:34.492Z,51.80
2018-05-02T19:39:02.385Z,52.40
2018-05-02T19:41:52.036Z,53.50
2018-05-02T19:44:19.930Z,53.50
2018-05-02T19:46:48.500Z,53.20
2018-05-02T19:49:16.308Z,53.20
2018-05-02T19:51:49.735Z,53.60
2018-05-02T19:54:17.667Z,53.50
2018-05-02T19:56:45.540Z,53.70
2018-05-02T19:59:13.544Z,54.50
2018-05-02T20:01:46.896Z,54.60
2018-05-02T20:04:14.849Z,54.90
2018-05-02T20:06:42.768Z,55.00
2018-05-02T20:09:16.580Z,55.00
2018-05-02T20:11:50.892Z,51.90
2018-05-02T20:14:19.487Z,52.00
2018-05-02T20:16:47.755Z,51.30
2018-05-02T20:19:16.007Z,51.10
2018-05-02T20:21:44.283Z,51.50
2018-05-02T20:24:12.251Z,51.30
2018-05-02T20:26:40.079Z,51.50
2018-05-02T20:29:08.650Z,52.30
2018-05-02T20:31:36.488Z,52.30
2018-05-02T20:34:05.670Z,52.80
2018-05-02T20:36:33.653Z,52.70
2018-05-02T20:39:01.969Z,52.30
2018-05-02T20:41:30.315Z,52.80
2018-05-02T20:43:58.206Z,53.30
2018-05-02T20:46:27.086Z,54.20
2018-05-02T20:48:55.694Z,53.90
2018-05-02T20:51:24.384Z,54.10
2018-05-02T20:53:52.207Z,54.10
2018-05-02T20:56:19.988Z,54.30
2018-05-02T20:58:47.784Z,54.50
2018-05-02T21:01:15.576Z,54.70
2018-05-02T21:03:43.482Z,54.50
2018-05-02T21:06:11.294Z,54.60
2018-05-02T21:08:39.107Z,54.90
2018-05-02T21:11:06.892Z,55.00
2018-05-02T21:13:36.152Z,55.20
2018-05-02T21:16:04.389Z,55.10
2018-05-02T21:18:33.612Z,55.30
2018-05-02T21:21:01.520Z,55.20
2018-05-02T21:23:29.329Z,55.50
2018-05-02T21:25:57.105Z,55.70
2018-05-02T21:28:24.896Z,55.80
2018-05-02T21:30:52.767Z,55.90
2018-05-02T21:33:20.540Z,55.60
2018-05-02T21:35:48.359Z,55.30
2018-05-02T21:38:16.136Z,55.70
2018-05-02T21:40:43.973Z,55.80
2018-05-02T21:43:11.792Z,55.90
2018-05-02T21:45:39.568Z,56.10
2018-05-02T21:48:07.406Z,56.30
2018-05-02T21:50:35.212Z,56.40
2018-05-02T21:53:03.051Z,56.30
2018-05-02T21:55:30.907Z,56.00
2018-05-02T21:57:58.727Z,56.00
2018-05-02T22:00:26.524Z,56.30
2018-05-02T22:02:54.346Z,56.50
2018-05-02T22:05:22.908Z,56.90
2018-05-02T22:07:50.704Z,56.90
2018-05-02T22:10:18.495Z,56.90
2018-05-02T22:12:46.286Z,56.70
2018-05-02T22:15:14.086Z,56.70
2018-05-02T22:17:41.932Z,56.80
2018-05-02T22:20:10.525Z,56.80
2018-05-02T22:22:39.078Z,57.10
2018-05-02T22:25:06.864Z,57.00
2018-05-02T22:27:34.667Z,57.30
2018-05-02T22:30:02.455Z,58.20
2018-05-02T22:32:30.339Z,58.20
2018-05-02T22:34:58.148Z,58.30
2018-05-02T22:37:26.724Z,59.10
2018-05-02T22:39:55.272Z,59.30
2018-05-02T22:42:23.065Z,59.30
2018-05-02T22:44:51.028Z,59.50
2018-05-02T22:47:19.600Z,60.10
2018-05-02T22:49:48.625Z,60.10
2018-05-02T22:52:16.426Z,60.60
2018-05-02T22:54:44.272Z,60.80
2018-05-02T22:57:12.069Z,61.00
2018-05-02T22:59:39.872Z,61.30
2018-05-02T23:02:08.436Z,61.50
2018-05-02T23:04:36.996Z,61.70
2018-05-02T23:07:04.768Z,61.60
2018-05-02T23:09:32.560Z,61.90
2018-05-02T23:12:01.155Z,61.50
2018-05-02T23:14:29.688Z,61.30
2018-05-02T23:16:57.468Z,61.10
2018-05-02T23:19:25.320Z,61.40
2018-05-02T23:21:53.132Z,61.90
2018-05-02T23:24:21.705Z,62.40
2018-05-02T23:26:49.492Z,62.40
2018-05-02T23:29:17.284Z,62.70
2018-05-02T23:31:45.060Z,62.80
2018-05-02T23:34:12.868Z,62.90
2018-05-02T23:36:41.410Z,63.10
2018-05-02T23:39:09.221Z,63.00
2018-05-02T23:41:37.789Z,63.40
2018-05-02T23:44:06.334Z,63.60
2018-05-02T23:46:34.140Z,63.50
2018-05-02T23:49:02.686Z,63.10
2018-05-02T23:51:30.483Z,63.30
2018-05-02T23:53:59.026Z,62.90
2018-05-02T23:56:26.886Z,62.80
2018-05-02T23:58:54.705Z,62.70
